createdAt,value
2023-04-23T00:03:33.763Z,100419.00
2023-04-23T00:08:40.851Z,100413.80
2023-04-23T00:13:43.653Z,100419.80
2023-04-23T00:18:44.824Z,100408.20
2023-04-23T00:23:46.041Z,100410.80
2023-04-23T00:28:47.235Z,100403.80
2023-04-23T00:33:48.466Z,100409.20
2023-04-23T00:38:50.313Z,100404.80
2023-04-23T00:43:52.459Z,100399.20
2023-04-23T00:48:54.558Z,100398.20
2023-04-23T00:53:56.218Z,100395.60
2023-04-23T00:58:57.497Z,100392.40
2023-04-23T01:03:59.698Z,100390.40
2023-04-23T01:09:01.650Z,100388.40
2023-04-23T01:14:02.882Z,100380.60
2023-04-23T01:19:07.180Z,100388.00
2023-04-23T01:24:10.874Z,100388.20
2023-04-23T01:29:13.173Z,100385.40
2023-04-23T01:34:14.988Z,100390.80
2023-04-23T01:39:17.129Z,100384.60
2023-04-23T01:44:18.753Z,100381.40
2023-04-23T01:49:19.992Z,100380.60
2023-04-23T01:54:21.310Z,100379.00
2023-04-23T01:59:22.948Z,100377.20
2023-04-23T02:04:24.851Z,100371.60
2023-04-23T02:09:26.238Z,100369.40
2023-04-23T02:14:28.362Z,100378.00
2023-04-23T02:19:33.784Z,100374.80
2023-04-23T02:24:35.724Z,100374.20
2023-04-23T02:29:37.230Z,100366.80
2023-04-23T02:34:38.624Z,100361.20
2023-04-23T02:39:40.059Z,100358.60
2023-04-23T02:44:41.474Z,100356.80
2023-04-23T02:49:42.906Z,100362.20
2023-04-23T02:54:44.198Z,100359.20
2023-04-23T02:59:45.690Z,100354.00
2023-04-23T03:04:46.922Z,100345.60
2023-04-23T03:09:48.148Z,100342.20
2023-04-23T03:14:49.464Z,100345.60
2023-04-23T03:19:51.027Z,100341.80
2023-04-23T03:24:52.213Z,100335.20
2023-04-23T03:29:53.429Z,100327.00
2023-04-23T03:34:54.774Z,100314.80
2023-04-23T03:39:55.994Z,100302.20
2023-04-23T03:44:57.195Z,100295.20
2023-04-23T03:49:58.412Z,100290.00
2023-04-23T03:54:59.577Z,100284.20
2023-04-23T04:00:01.113Z,100278.80
2023-04-23T04:05:02.673Z,100272.40
2023-04-23T04:10:06.372Z,100270.40
2023-04-23T04:15:08.623Z,100261.20
2023-04-23T04:20:11.011Z,100261.60
2023-04-23T04:25:12.543Z,100247.00
2023-04-23T04:30:13.958Z,100249.20
2023-04-23T04:35:15.360Z,100242.60
2023-04-23T04:40:16.787Z,100233.00
2023-04-23T04:45:18.908Z,100221.20
2023-04-23T04:50:20.125Z,100220.40
2023-04-23T04:55:21.490Z,100213.20
2023-04-23T05:00:28.782Z,100205.80
2023-04-23T05:05:32.418Z,100202.60
2023-04-23T05:10:33.689Z,100195.60
2023-04-23T05:15:35.099Z,100191.60
2023-04-23T05:20:37.486Z,100180.40
2023-04-23T05:25:39.234Z,100185.20
2023-04-23T05:30:40.455Z,100186.40
2023-04-23T05:35:41.771Z,100181.20
2023-04-23T05:40:43.044Z,100178.20
2023-04-23T05:45:44.327Z,100178.60
2023-04-23T05:50:45.676Z,100167.80
2023-04-23T05:55:46.880Z,100169.60
2023-04-23T06:00:49.094Z,100166.00
2023-04-23T06:05:50.462Z,100166.20
2023-04-23T06:10:51.776Z,100164.60
2023-04-23T06:15:53.039Z,100170.00
2023-04-23T06:20:56.257Z,100174.00
2023-04-23T06:25:58.142Z,100167.40
2023-04-23T06:30:59.340Z,100165.80
2023-04-23T06:36:00.578Z,100159.80
2023-04-23T06:41:03.750Z,100165.40
2023-04-23T06:46:05.206Z,100165.80
2023-04-23T06:51:06.586Z,100169.80
2023-04-23T06:56:08.351Z,100162.20
2023-04-23T07:01:10.699Z,100161.20
2023-04-23T07:06:12.196Z,100160.80
2023-04-23T07:11:13.493Z,100156.20
2023-04-23T07:16:15.132Z,100149.80
2023-04-23T07:21:16.402Z,100150.00
2023-04-23T07:26:18.017Z,100147.20
2023-04-23T07:31:19.834Z,100144.20
2023-04-23T07:36:22.154Z,100145.00
2023-04-23T07:41:24.705Z,100137.20
2023-04-23T07:46:25.944Z,100139.00
2023-04-23T07:51:27.869Z,100139.60
2023-04-23T07:56:31.743Z,100134.80
2023-04-23T08:01:33.645Z,100140.00
2023-04-23T08:06:35.855Z,100133.80
2023-04-23T08:11:37.124Z,100134.20
2023-04-23T08:16:39.119Z,100135.60
2023-04-23T08:21:40.846Z,100137.60
2023-04-23T08:26:42.212Z,100138.00
2023-04-23T08:31:43.754Z,100137.80
2023-04-23T08:36:45.841Z,100130.40
2023-04-23T08:41:54.984Z,100140.60
2023-04-23T08:46:57.644Z,100130.00
2023-04-23T08:52:15.896Z,100130.00
2023-04-23T08:57:18.106Z,100123.20
2023-04-23T09:02:20.072Z,100120.60
2023-04-23T09:07:21.963Z,100113.00
2023-04-23T09:12:23.451Z,100116.20
2023-04-23T09:17:29.882Z,100111.80
2023-04-23T09:22:50.079Z,100106.80
2023-04-23T09:27:52.499Z,100106.20
2023-04-23T09:32:54.323Z,100106.20
2023-04-23T09:37:58.586Z,100105.60
2023-04-23T09:43:03.941Z,100108.00
2023-04-23T09:48:05.343Z,100105.60
2023-04-23T09:53:08.970Z,100095.20
2023-04-23T09:58:14.443Z,100092.00
2023-04-23T10:03:26.911Z,100081.60
2023-04-23T10:08:31.085Z,100084.40
2023-04-23T10:13:36.481Z,100077.00
2023-04-23T10:18:38.396Z,100073.20
2023-04-23T10:23:44.989Z,100064.00
2023-04-23T10:28:50.053Z,100064.80
2023-04-23T10:33:58.832Z,100075.80
2023-04-23T10:39:06.719Z,100078.00
2023-04-23T10:44:15.325Z,100079.40
2023-04-23T10:49:17.314Z,100072.60
2023-04-23T10:54:19.092Z,100065.80
2023-04-23T10:59:21.162Z,100060.80
2023-04-23T11:04:28.469Z,100052.20
2023-04-23T11:09:46.641Z,100054.00
2023-04-23T11:14:49.846Z,100052.80
2023-04-23T11:20:03.364Z,100043.00
2023-04-23T11:25:12.943Z,100048.00
2023-04-23T11:30:21.871Z,100041.00
2023-04-23T11:35:29.739Z,100033.00
2023-04-23T11:40:34.123Z,100026.00
2023-04-23T11:45:35.888Z,100015.80
2023-04-23T11:50:38.359Z,100025.60
2023-04-23T11:55:43.193Z,100018.00
2023-04-23T12:00:44.371Z,100008.80
2023-04-23T12:05:46.541Z,100010.20
2023-04-23T12:11:02.306Z,100009.00
2023-04-23T12:16:05.042Z,99997.20
2023-04-23T12:21:13.541Z,100000.00
2023-04-23T12:26:15.797Z,99998.80
2023-04-23T12:31:28.813Z,99993.80
2023-04-23T12:36:31.570Z,99990.40
2023-04-23T12:41:33.527Z,99995.80
2023-04-23T12:46:34.920Z,99974.20
2023-04-23T12:51:36.913Z,99974.00
2023-04-23T12:56:38.201Z,99975.20
2023-04-23T13:01:39.988Z,99965.00
2023-04-23T13:06:42.145Z,99970.80
2023-04-23T13:11:43.448Z,99964.40
2023-04-23T13:16:44.871Z,99957.20
2023-04-23T13:21:46.250Z,99957.40
2023-04-23T13:26:47.408Z,99945.60
2023-04-23T13:31:48.692Z,99946.80
2023-04-23T13:36:50.033Z,99942.80
2023-04-23T13:42:02.756Z,99939.20
2023-04-23T13:47:10.532Z,99933.60
2023-04-23T13:52:11.791Z,99935.00
2023-04-23T13:57:13.338Z,99927.00
2023-04-23T14:02:14.923Z,99922.20
2023-04-23T14:07:16.085Z,99916.40
2023-04-23T14:12:18.948Z,99903.80
2023-04-23T14:17:20.411Z,99912.40
2023-04-23T14:22:21.712Z,99905.20
2023-04-23T14:27:22.893Z,99891.40
2023-04-23T14:32:24.152Z,99896.60
2023-04-23T14:37:25.404Z,99887.00
2023-04-23T14:42:28.052Z,99884.00
2023-04-23T14:47:29.284Z,99881.40
2023-04-23T14:52:30.982Z,99884.40
2023-04-23T14:57:32.143Z,99885.20
2023-04-23T15:02:34.396Z,99881.60
2023-04-23T15:07:37.209Z,99883.20
2023-04-23T15:12:54.777Z,99875.40
2023-04-23T15:17:56.058Z,99878.00
2023-04-23T15:22:57.389Z,99874.80
2023-04-23T15:28:00.169Z,99870.00
2023-04-23T15:33:01.423Z,99873.00
2023-04-23T15:38:03.066Z,99870.00
2023-04-23T15:43:04.251Z,99867.60
2023-04-23T15:48:05.678Z,99857.00
2023-04-23T15:53:06.988Z,99858.20
2023-04-23T15:58:08.222Z,99857.20
2023-04-23T16:03:09.646Z,99862.60
2023-04-23T16:08:11.226Z,99850.00
2023-04-23T16:13:12.467Z,99845.80
2023-04-23T16:18:13.772Z,99840.20
2023-04-23T16:23:15.631Z,99835.80
2023-04-23T16:28:16.860Z,99836.60
2023-04-23T16:33:18.073Z,99829.60
2023-04-23T16:38:19.255Z,99820.40
2023-04-23T16:43:20.584Z,99819.20
2023-04-23T16:48:21.779Z,99813.60
2023-04-23T16:53:22.969Z,99823.40
2023-04-23T16:58:24.578Z,99823.20
2023-04-23T17:03:26.209Z,99815.60
2023-04-23T17:08:28.195Z,99805.80
2023-04-23T17:13:29.422Z,99806.00
2023-04-23T17:18:30.683Z,99805.40
2023-04-23T17:23:31.887Z,99809.00
2023-04-23T17:28:33.150Z,99807.40
2023-04-23T17:33:34.802Z,99799.40
2023-04-23T17:38:36.540Z,99800.20
2023-04-23T17:43:38.263Z,99801.60
2023-04-23T17:48:40.384Z,99798.60
2023-04-23T17:53:41.728Z,99794.80
2023-04-23T17:58:42.900Z,99796.80
2023-04-23T18:03:44.485Z,99793.60
2023-04-23T18:08:46.005Z,99795.00
2023-04-23T18:13:49.371Z,99798.20
2023-04-23T18:18:51.291Z,99803.40
2023-04-23T18:23:52.489Z,99802.80
2023-04-23T18:28:53.656Z,99799.40
2023-04-23T18:34:01.649Z,99806.00
2023-04-23T18:39:04.147Z,99820.40
2023-04-23T18:44:06.067Z,99862.80
2023-04-23T18:49:29.150Z,99861.00
2023-04-23T18:54:30.350Z,99869.40
2023-04-23T18:59:35.251Z,99863.80
2023-04-23T19:04:37.061Z,99869.20
2023-04-23T19:09:38.455Z,99872.60
2023-04-23T19:14:39.803Z,99881.20
2023-04-23T19:19:41.291Z,99882.40
2023-04-23T19:24:42.777Z,99876.40
2023-04-23T19:29:45.186Z,99877.60
2023-04-23T19:34:46.379Z,99880.60
2023-04-23T19:39:47.641Z,99887.00
2023-04-23T19:44:49.037Z,99876.20
2023-04-23T19:49:50.820Z,99877.20
2023-04-23T19:54:52.418Z,99878.20
2023-04-23T19:59:53.976Z,99880.00
2023-04-23T20:04:55.250Z,99881.00
2023-04-23T20:09:56.434Z,99876.20
2023-04-23T20:14:58.158Z,99881.00
2023-04-23T20:20:01.192Z,99871.40
2023-04-23T20:25:02.807Z,99870.00
2023-04-23T20:30:09.255Z,99869.20
2023-04-23T20:35:10.479Z,99860.60
2023-04-23T20:40:12.178Z,99864.80
2023-04-23T20:45:13.733Z,99869.60
2023-04-23T20:50:15.369Z,99865.40
2023-04-23T20:55:16.831Z,99863.60
2023-04-23T21:00:19.771Z,99862.00
2023-04-23T21:05:21.104Z,99865.40
2023-04-23T21:10:23.069Z,99869.80
2023-04-23T21:15:24.489Z,99871.00
2023-04-23T21:20:25.870Z,99866.40
2023-04-23T21:25:27.626Z,99866.60
2023-04-23T21:30:51.837Z,99862.80
2023-04-23T21:35:53.380Z,99856.60
2023-04-23T21:40:54.586Z,99853.20
2023-04-23T21:45:55.835Z,99850.80
2023-04-23T21:50:57.055Z,99841.00
2023-04-23T21:55:58.833Z,99844.00
2023-04-23T22:01:00.082Z,99835.00
2023-04-23T22:06:04.573Z,99832.20
2023-04-23T22:11:07.517Z,99830.80
2023-04-23T22:16:20.281Z,99820.20
2023-04-23T22:21:27.538Z,99816.60
2023-04-23T22:26:29.093Z,99810.40
2023-04-23T22:31:30.346Z,99813.20
2023-04-23T22:36:31.873Z,99820.60
2023-04-23T22:41:35.801Z,99823.60
2023-04-23T22:46:37.140Z,99828.60
2023-04-23T22:51:38.530Z,99830.60
2023-04-23T22:56:40.368Z,99825.00
2023-04-23T23:01:41.756Z,99826.00
2023-04-23T23:06:43.166Z,99823.20
2023-04-23T23:11:44.622Z,99825.20
2023-04-23T23:16:45.861Z,99822.00
2023-04-23T23:21:47.430Z,99816.40
2023-04-23T23:26:50.033Z,99806.60
2023-04-23T23:31:51.440Z,99802.20
2023-04-23T23:36:52.901Z,99797.80
2023-04-23T23:41:54.055Z,99796.80
2023-04-23T23:46:55.653Z,99794.60
2023-04-23T23:51:57.434Z,99788.60
2023-04-23T23:56:59.244Z,99780.60
